createdAt,value
2017-10-01T00:00:11.163Z,2.83
2017-10-01T00:02:38.895Z,1.87
2017-10-01T00:05:07.513Z,2.00
2017-10-01T00:07:35.166Z,2.03
2017-10-01T00:10:02.891Z,1.90
2017-10-01T00:12:30.556Z,2.20
2017-10-01T00:14:58.216Z,1.90
2017-10-01T00:17:25.937Z,1.50
2017-10-01T00:19:53.588Z,2.37
2017-10-01T00:22:21.254Z,1.80
2017-10-01T00:24:48.991Z,2.40
2017-10-01T00:27:17.609Z,2.00
2017-10-01T00:29:45.265Z,2.03
2017-10-01T00:32:13.004Z,2.00
2017-10-01T00:34:40.672Z,1.63
2017-10-01T00:37:08.349Z,1.90
2017-10-01T00:39:36.091Z,2.27
2017-10-01T00:42:03.755Z,2.23
2017-10-01T00:44:31.413Z,2.30
2017-10-01T00:46:59.143Z,1.77
2017-10-01T00:49:26.802Z,2.33
2017-10-01T00:51:54.482Z,2.17
2017-10-01T00:54:22.195Z,1.90
2017-10-01T00:56:49.849Z,2.20
2017-10-01T01:01:56.692Z,2.37
2017-10-01T01:04:24.354Z,2.07
2017-10-01T01:06:52.013Z,1.87
2017-10-01T01:09:19.772Z,1.73
2017-10-01T01:11:47.395Z,2.50
2017-10-01T01:14:15.081Z,2.27
2017-10-01T01:16:42.817Z,2.03
2017-10-01T01:19:10.485Z,2.10
2017-10-01T01:21:38.144Z,2.30
2017-10-01T01:24:05.909Z,2.20
2017-10-01T01:26:33.622Z,2.63
2017-10-01T01:29:01.283Z,2.30
2017-10-01T01:31:29.030Z,2.30
2017-10-01T01:33:56.686Z,2.10
2017-10-01T01:36:24.346Z,2.17
2017-10-01T01:38:52.069Z,2.40
2017-10-01T01:41:19.721Z,2.37
2017-10-01T01:43:47.384Z,2.53
2017-10-01T01:46:15.126Z,1.90
2017-10-01T01:48:42.795Z,2.80
2017-10-01T01:51:10.464Z,2.80
2017-10-01T01:53:38.193Z,2.83
2017-10-01T01:56:05.858Z,2.50
2017-10-01T01:58:33.534Z,3.07
2017-10-01T02:01:01.275Z,3.20
2017-10-01T02:03:28.949Z,2.80
2017-10-01T02:05:56.610Z,2.90
2017-10-01T02:08:24.350Z,2.83
2017-10-01T02:10:52.014Z,3.20
2017-10-01T02:13:19.669Z,2.80
2017-10-01T02:15:47.423Z,2.97
2017-10-01T02:18:15.929Z,3.10
2017-10-01T02:20:43.595Z,3.10
2017-10-01T02:23:11.304Z,2.90
2017-10-01T02:28:18.169Z,3.10
2017-10-01T02:30:45.840Z,2.80
2017-10-01T02:33:13.491Z,2.73
2017-10-01T02:35:41.205Z,2.80
2017-10-01T02:38:08.892Z,3.30
2017-10-01T02:40:36.554Z,2.90
2017-10-01T02:43:04.281Z,2.73
2017-10-01T02:45:31.944Z,2.70
2017-10-01T02:47:59.613Z,2.80
2017-10-01T02:50:27.341Z,2.73
2017-10-01T02:52:55.000Z,2.40
2017-10-01T02:55:22.696Z,2.23
2017-10-01T02:57:50.432Z,2.90
2017-10-01T03:00:18.097Z,3.33
2017-10-01T03:02:45.766Z,2.67
2017-10-01T03:05:13.500Z,2.90
2017-10-01T03:07:41.157Z,3.13
2017-10-01T03:10:08.819Z,3.10
2017-10-01T03:12:36.557Z,3.00
2017-10-01T03:15:04.212Z,3.07
2017-10-01T03:17:31.904Z,2.57
2017-10-01T03:19:59.629Z,3.00
2017-10-01T03:22:27.296Z,2.80
2017-10-01T03:24:54.956Z,3.57
2017-10-01T03:27:22.700Z,2.80
2017-10-01T03:29:50.356Z,2.80
2017-10-01T03:32:18.017Z,2.93
2017-10-01T03:34:45.741Z,2.93
2017-10-01T03:37:13.436Z,2.93
2017-10-01T03:39:41.094Z,3.03
2017-10-01T03:42:09.650Z,3.00
2017-10-01T03:44:37.307Z,2.50
2017-10-01T03:49:44.154Z,3.53
2017-10-01T03:52:11.806Z,2.97
2017-10-01T03:54:39.468Z,2.63
2017-10-01T03:57:07.185Z,3.10
2017-10-01T03:59:34.852Z,3.37
2017-10-01T04:02:03.522Z,2.37
2017-10-01T04:04:31.241Z,2.60
2017-10-01T04:06:58.905Z,3.13
2017-10-01T04:09:26.573Z,3.10
2017-10-01T04:11:54.321Z,2.57
2017-10-01T04:14:21.995Z,1.97
2017-10-01T04:16:49.657Z,2.10
2017-10-01T04:19:17.381Z,1.77
2017-10-01T04:21:45.062Z,2.20
2017-10-01T04:24:12.721Z,2.27
2017-10-01T04:26:40.444Z,2.20
2017-10-01T04:29:08.105Z,1.50
2017-10-01T04:31:35.761Z,1.50
2017-10-01T04:34:03.504Z,1.53
2017-10-01T04:36:31.177Z,1.33
2017-10-01T04:38:58.858Z,1.50
2017-10-01T04:41:26.585Z,1.20
2017-10-01T04:43:54.245Z,1.30
2017-10-01T04:46:21.908Z,1.67
2017-10-01T04:48:49.650Z,1.80
2017-10-01T04:51:17.314Z,1.70
2017-10-01T04:53:44.975Z,2.40
2017-10-01T04:56:12.695Z,2.70
2017-10-01T04:58:40.363Z,2.67
2017-10-01T05:01:08.027Z,2.10
2017-10-01T05:03:35.753Z,2.50
2017-10-01T05:06:03.410Z,1.67
2017-10-01T05:08:31.076Z,2.23
2017-10-01T05:10:58.789Z,2.60
2017-10-01T05:13:26.446Z,2.23
2017-10-01T05:15:54.104Z,2.47
2017-10-01T05:21:00.947Z,2.90
2017-10-01T05:23:28.746Z,3.33
2017-10-01T05:25:56.397Z,3.03
2017-10-01T05:28:24.904Z,2.27
2017-10-01T05:30:52.608Z,2.40
2017-10-01T05:33:20.273Z,2.50
2017-10-01T05:35:47.947Z,2.00
2017-10-01T05:38:15.682Z,1.53
2017-10-01T05:40:43.338Z,1.80
2017-10-01T05:43:11.003Z,2.07
2017-10-01T05:45:38.723Z,2.27
2017-10-01T05:48:06.375Z,1.73
2017-10-01T05:50:34.038Z,1.87
2017-10-01T05:53:02.605Z,2.57
2017-10-01T05:55:30.253Z,5.47
2017-10-01T05:57:57.937Z,4.47
2017-10-01T06:00:25.677Z,3.80
2017-10-01T06:02:53.341Z,2.83
2017-10-01T06:05:21.001Z,2.30
2017-10-01T06:07:48.719Z,3.10
2017-10-01T06:10:16.422Z,2.37
2017-10-01T06:12:44.087Z,2.70
2017-10-01T06:15:11.819Z,2.07
2017-10-01T06:17:39.487Z,1.93
2017-10-01T06:20:07.150Z,2.67
2017-10-01T06:22:34.873Z,2.30
2017-10-01T06:25:02.572Z,2.67
2017-10-01T06:27:30.234Z,2.40
2017-10-01T06:29:57.965Z,2.67
2017-10-01T06:32:25.620Z,2.70
2017-10-01T06:34:53.301Z,2.40
2017-10-01T06:37:21.030Z,1.10
2017-10-01T06:39:48.683Z,1.23
2017-10-01T06:42:16.341Z,1.40
2017-10-01T06:47:23.178Z,2.08
2017-10-01T06:49:50.928Z,1.97
2017-10-01T06:52:19.506Z,2.20
2017-10-01T06:54:47.148Z,1.70
2017-10-01T06:57:14.873Z,1.53
2017-10-01T06:59:42.561Z,2.10
2017-10-01T07:02:10.218Z,2.00
2017-10-01T07:04:37.946Z,1.83
2017-10-01T07:07:05.639Z,1.30
2017-10-01T07:09:33.301Z,1.10
2017-10-01T07:12:01.047Z,3.27
2017-10-01T07:14:28.701Z,0.80
2017-10-01T07:16:56.380Z,0.80
2017-10-01T07:19:24.098Z,1.17
2017-10-01T07:21:51.770Z,0.93
2017-10-01T07:24:19.438Z,1.20
2017-10-01T07:26:47.230Z,1.00
2017-10-01T07:29:14.881Z,1.30
2017-10-01T07:31:42.565Z,0.90
2017-10-01T07:34:10.278Z,0.90
2017-10-01T07:36:37.955Z,0.60
2017-10-01T07:39:05.606Z,0.70
2017-10-01T07:41:33.354Z,0.57
2017-10-01T07:44:01.008Z,0.70
2017-10-01T07:46:28.679Z,0.93
2017-10-01T07:48:56.408Z,0.90
2017-10-01T07:51:24.088Z,0.90
2017-10-01T07:53:52.044Z,0.77
2017-10-01T07:56:19.785Z,0.90
2017-10-01T07:58:48.260Z,1.07
2017-10-01T08:01:16.798Z,1.10
2017-10-01T08:03:44.547Z,0.90
2017-10-01T08:06:13.161Z,1.30
2017-10-01T08:08:40.844Z,0.93
2017-10-01T08:13:47.700Z,1.27
2017-10-01T08:16:15.436Z,0.97
2017-10-01T08:18:43.144Z,1.40
2017-10-01T08:21:11.794Z,1.03
2017-10-01T08:23:39.548Z,1.57
2017-10-01T08:26:07.211Z,1.40
2017-10-01T08:28:34.917Z,1.33
2017-10-01T08:31:02.655Z,1.47
2017-10-01T08:33:30.345Z,1.20
2017-10-01T08:35:58.005Z,1.40
2017-10-01T08:38:26.731Z,1.40
2017-10-01T08:40:54.406Z,1.33
2017-10-01T08:43:22.077Z,1.37
2017-10-01T08:45:49.809Z,2.00
2017-10-01T08:48:17.464Z,2.47
2017-10-01T08:50:45.147Z,1.80
2017-10-01T08:53:12.861Z,1.23
2017-10-01T08:55:40.525Z,1.10
2017-10-01T08:58:08.197Z,2.00
2017-10-01T09:00:35.951Z,1.87
2017-10-01T09:03:03.615Z,1.60
2017-10-01T09:05:31.319Z,1.40
2017-10-01T09:07:59.091Z,1.47
2017-10-01T09:10:26.773Z,1.63
2017-10-01T09:12:54.435Z,1.97
2017-10-01T09:15:23.158Z,2.10
2017-10-01T09:17:50.818Z,1.43
2017-10-01T09:20:19.239Z,0.97
2017-10-01T09:22:46.956Z,0.70
2017-10-01T09:25:14.630Z,0.90
2017-10-01T09:27:42.285Z,0.93
2017-10-01T09:30:10.045Z,1.23
2017-10-01T09:35:18.874Z,1.33
2017-10-01T09:37:46.539Z,0.97
2017-10-01T09:40:14.193Z,0.70
2017-10-01T09:42:41.937Z,0.80
2017-10-01T09:45:09.600Z,0.87
2017-10-01T09:47:37.253Z,1.07
2017-10-01T09:50:05.938Z,1.33
2017-10-01T09:52:33.620Z,0.93
2017-10-01T09:55:01.277Z,1.10
2017-10-01T09:57:29.070Z,1.20
2017-10-01T09:59:56.751Z,1.20
2017-10-01T10:02:24.407Z,1.20
2017-10-01T10:04:52.941Z,1.10
2017-10-01T10:07:20.606Z,1.47
2017-10-01T10:09:48.270Z,1.37
2017-10-01T10:12:16.949Z,1.10
2017-10-01T10:14:44.619Z,1.50
2017-10-01T10:17:12.292Z,1.17
2017-10-01T10:19:40.021Z,1.50
2017-10-01T10:22:07.684Z,1.80
2017-10-01T10:24:35.343Z,1.90
2017-10-01T10:27:03.091Z,2.07
2017-10-01T10:29:30.756Z,2.20
2017-10-01T10:31:58.422Z,2.63
2017-10-01T10:34:26.295Z,2.40
2017-10-01T10:36:53.975Z,2.03
2017-10-01T10:39:21.669Z,1.93
2017-10-01T10:41:50.522Z,2.70
2017-10-01T10:44:19.155Z,2.70
2017-10-01T10:46:47.740Z,23.27
2017-10-01T10:49:15.511Z,2.20
2017-10-01T10:51:43.198Z,2.10
2017-10-01T10:54:10.923Z,2.17
2017-10-01T10:56:38.632Z,1.97
2017-10-01T11:01:45.514Z,2.17
2017-10-01T11:04:13.181Z,2.43
2017-10-01T11:06:40.853Z,2.23
2017-10-01T11:09:09.412Z,1.90
2017-10-01T11:11:37.068Z,2.33
2017-10-01T11:14:04.748Z,1.83
2017-10-01T11:16:32.469Z,2.30
2017-10-01T11:19:00.132Z,2.17
2017-10-01T11:21:27.802Z,1.37
2017-10-01T11:23:55.545Z,1.80
2017-10-01T11:26:24.213Z,1.80
2017-10-01T11:28:52.721Z,2.07
2017-10-01T11:31:20.467Z,2.60
2017-10-01T11:33:48.811Z,1.33
2017-10-01T11:36:16.492Z,1.80
2017-10-01T11:38:44.250Z,2.47
2017-10-01T11:41:12.966Z,2.27
2017-10-01T11:43:40.634Z,2.47
2017-10-01T11:46:09.196Z,2.13
2017-10-01T11:48:36.864Z,3.20
2017-10-01T11:51:05.361Z,2.60
2017-10-01T11:53:33.874Z,7.20
2017-10-01T11:56:01.585Z,4.93
2017-10-01T11:58:29.240Z,4.27
2017-10-01T12:00:57.003Z,7.63
2017-10-01T12:03:24.700Z,2.10
2017-10-01T12:05:52.354Z,3.63
2017-10-01T12:08:20.870Z,2.67
2017-10-01T12:10:48.523Z,2.70
2017-10-01T12:13:16.191Z,2.53
2017-10-01T12:15:43.911Z,2.57
2017-10-01T12:18:11.571Z,2.40
2017-10-01T12:20:39.225Z,2.30
2017-10-01T12:23:06.949Z,2.03
2017-10-01T12:25:34.633Z,2.60
2017-10-01T12:30:41.509Z,2.30
2017-10-01T12:33:10.061Z,2.33
2017-10-01T12:35:37.736Z,2.40
2017-10-01T12:38:05.509Z,2.30
2017-10-01T12:40:33.171Z,2.50
2017-10-01T12:43:00.827Z,2.47
2017-10-01T12:45:29.357Z,2.30
2017-10-01T12:47:57.891Z,2.10
2017-10-01T12:50:25.550Z,2.30
2017-10-01T12:52:53.318Z,2.00
2017-10-01T12:55:20.988Z,2.20
2017-10-01T12:57:48.663Z,2.07
2017-10-01T13:03:02.139Z,2.05
2017-10-01T13:05:29.873Z,2.33
2017-10-01T13:07:57.551Z,1.87
2017-10-01T13:10:25.193Z,2.37
2017-10-01T13:12:52.930Z,2.17
2017-10-01T13:15:21.551Z,1.90
2017-10-01T13:17:49.215Z,2.60
2017-10-01T13:20:16.958Z,2.77
2017-10-01T13:22:44.925Z,2.43
2017-10-01T13:25:12.610Z,2.77
2017-10-01T13:27:40.355Z,2.90
2017-10-01T13:30:08.020Z,2.77
2017-10-01T13:32:35.715Z,2.37
2017-10-01T13:35:03.438Z,2.83
2017-10-01T13:37:31.928Z,2.53
2017-10-01T13:39:59.603Z,2.87
2017-10-01T13:42:27.348Z,2.63
2017-10-01T13:44:55.953Z,2.70
2017-10-01T13:47:23.612Z,2.73
2017-10-01T13:49:51.377Z,2.03
2017-10-01T13:52:19.046Z,2.37
2017-10-01T13:54:46.722Z,2.63
2017-10-01T13:57:15.489Z,2.70
2017-10-01T13:59:43.139Z,2.80
2017-10-01T14:02:10.828Z,2.63
2017-10-01T14:04:38.551Z,3.17
2017-10-01T14:07:06.252Z,3.20
2017-10-01T14:09:33.927Z,2.80
2017-10-01T14:12:01.643Z,2.43
2017-10-01T14:14:29.358Z,2.30
2017-10-01T14:16:58.006Z,3.37
2017-10-01T14:19:25.760Z,4.57
2017-10-01T14:21:54.382Z,5.40
2017-10-01T14:24:22.050Z,5.77
2017-10-01T14:29:29.590Z,4.75
2017-10-01T14:31:57.317Z,4.80
2017-10-01T14:34:25.875Z,3.50
2017-10-01T14:36:54.526Z,3.03
2017-10-01T14:39:23.005Z,3.10
2017-10-01T14:41:51.490Z,3.53
2017-10-01T14:44:19.156Z,3.50
2017-10-01T14:46:46.884Z,4.20
2017-10-01T14:49:15.435Z,4.97
2017-10-01T14:51:43.191Z,5.10
2017-10-01T14:54:10.962Z,4.97
2017-10-01T14:56:38.629Z,3.93
2017-10-01T14:59:06.334Z,3.27
2017-10-01T15:01:34.099Z,4.20
2017-10-01T15:04:01.746Z,5.23
2017-10-01T15:06:29.431Z,5.30
2017-10-01T15:08:57.942Z,6.10
2017-10-01T15:11:26.477Z,5.67
2017-10-01T15:13:55.098Z,6.07
2017-10-01T15:16:22.893Z,5.90
2017-10-01T15:18:50.560Z,7.03
2017-10-01T15:21:18.434Z,7.77
2017-10-01T15:23:46.210Z,8.97
2017-10-01T15:26:13.886Z,8.43
2017-10-01T15:28:41.616Z,7.47
2017-10-01T15:31:09.376Z,7.90
2017-10-01T15:33:37.050Z,8.30
2017-10-01T15:36:05.222Z,7.93
2017-10-01T15:38:32.958Z,7.80
2017-10-01T15:41:00.625Z,7.80
2017-10-01T15:43:29.410Z,9.33
2017-10-01T15:45:57.165Z,9.07
2017-10-01T15:48:24.832Z,7.53
2017-10-01T15:50:52.495Z,7.40
2017-10-01T15:53:20.220Z,6.97
2017-10-01T15:55:47.889Z,8.63
2017-10-01T16:00:54.761Z,8.68
2017-10-01T16:03:22.446Z,7.33
2017-10-01T16:05:50.116Z,7.90
2017-10-01T16:10:57.444Z,8.65
2017-10-01T16:13:25.174Z,7.37
2017-10-01T16:15:52.837Z,6.47
2017-10-01T16:18:20.612Z,6.43
2017-10-01T16:20:48.344Z,8.80
2017-10-01T16:23:16.040Z,8.60
2017-10-01T16:25:43.729Z,8.10
2017-10-01T16:28:11.475Z,7.73
2017-10-01T16:30:39.160Z,8.87
2017-10-01T16:33:07.581Z,11.13
2017-10-01T16:35:36.151Z,7.37
2017-10-01T16:38:04.614Z,7.73
2017-10-01T16:40:32.307Z,7.30
2017-10-01T16:43:00.018Z,8.17
2017-10-01T16:45:28.527Z,7.63
2017-10-01T16:47:57.055Z,8.43
2017-10-01T16:50:24.796Z,6.37
2017-10-01T16:52:52.453Z,6.60
2017-10-01T16:55:20.127Z,7.47
2017-10-01T16:57:47.873Z,7.50
2017-10-01T17:00:15.549Z,10.23
2017-10-01T17:02:43.207Z,6.90
2017-10-01T17:05:11.750Z,7.73
2017-10-01T17:07:39.453Z,9.57
2017-10-01T17:10:07.112Z,7.60
2017-10-01T17:12:34.874Z,6.20
2017-10-01T17:15:03.473Z,6.60
2017-10-01T17:17:31.153Z,6.77
2017-10-01T17:19:58.871Z,5.20
2017-10-01T17:22:26.535Z,5.43
2017-10-01T17:24:54.202Z,5.83
2017-10-01T17:27:21.919Z,5.57
2017-10-01T17:29:49.582Z,5.50
2017-10-01T17:32:17.245Z,4.90
2017-10-01T17:34:44.975Z,5.80
2017-10-01T17:39:51.805Z,7.53
2017-10-01T17:42:20.494Z,5.23
2017-10-01T17:44:48.163Z,6.67
2017-10-01T17:47:15.881Z,6.93
2017-10-01T17:49:43.562Z,5.87
2017-10-01T17:52:11.221Z,6.67
2017-10-01T17:54:39.011Z,6.13
2017-10-01T17:57:06.674Z,9.47
2017-10-01T17:59:34.369Z,8.90
2017-10-01T18:02:02.090Z,9.03
2017-10-01T18:04:30.591Z,9.00
2017-10-01T18:06:59.077Z,11.30
2017-10-01T18:09:26.808Z,11.47
2017-10-01T18:11:54.483Z,9.87
2017-10-01T18:14:23.032Z,9.10
2017-10-01T18:16:50.788Z,10.00
2017-10-01T18:19:18.470Z,10.90
2017-10-01T18:21:46.131Z,9.37
2017-10-01T18:24:13.983Z,10.47
2017-10-01T18:26:41.654Z,11.80
2017-10-01T18:29:09.317Z,11.50
2017-10-01T18:31:37.045Z,10.73
2017-10-01T18:34:05.762Z,13.03
2017-10-01T18:36:34.405Z,11.90
2017-10-01T18:39:02.149Z,11.23
2017-10-01T18:41:29.819Z,11.00
2017-10-01T18:43:57.498Z,12.67
2017-10-01T18:46:25.234Z,10.40
2017-10-01T18:48:53.778Z,14.93
2017-10-01T18:51:23.315Z,10.00
2017-10-01T18:53:51.032Z,11.87
2017-10-01T18:56:18.786Z,13.60
2017-10-01T18:58:46.444Z,10.23
2017-10-01T19:01:14.993Z,7.93
2017-10-01T19:03:42.678Z,9.03
2017-10-01T19:08:49.551Z,10.93
2017-10-01T19:11:17.236Z,14.00
2017-10-01T19:13:44.922Z,15.90
2017-10-01T19:16:12.671Z,10.40
2017-10-01T19:18:40.356Z,10.90
2017-10-01T19:21:08.982Z,12.40
2017-10-01T19:23:37.682Z,9.90
2017-10-01T19:26:05.864Z,10.77
2017-10-01T19:28:34.281Z,9.27
2017-10-01T19:31:01.996Z,10.50
2017-10-01T19:33:30.412Z,12.37
2017-10-01T19:35:58.125Z,17.50
2017-10-01T19:38:25.873Z,16.10
2017-10-01T19:40:53.549Z,13.23
2017-10-01T19:43:21.249Z,12.53
2017-10-01T19:45:48.998Z,12.30
2017-10-01T19:48:17.541Z,13.30
2017-10-01T19:50:45.220Z,12.97
2017-10-01T19:53:12.968Z,14.27
2017-10-01T19:55:40.654Z,14.43
2017-10-01T19:58:09.291Z,14.80
2017-10-01T20:03:18.699Z,16.23
2017-10-01T20:05:46.425Z,14.63
2017-10-01T20:08:14.992Z,13.60
2017-10-01T20:10:42.677Z,13.83
2017-10-01T20:13:11.329Z,13.87
2017-10-01T20:15:39.038Z,12.43
2017-10-01T20:18:06.863Z,12.50
2017-10-01T20:20:34.603Z,12.27
2017-10-01T20:23:03.150Z,11.97
2017-10-01T20:25:31.639Z,12.47
2017-10-01T20:27:59.397Z,12.37
2017-10-01T20:30:27.160Z,13.33
2017-10-01T20:32:55.695Z,12.87
2017-10-01T20:35:24.428Z,12.63
2017-10-01T20:37:52.127Z,12.93
2017-10-01T20:40:19.911Z,13.50
2017-10-01T20:42:47.668Z,13.57
2017-10-01T20:45:16.155Z,13.67
2017-10-01T20:47:43.881Z,13.63
2017-10-01T20:50:11.635Z,13.20
2017-10-01T20:52:39.387Z,14.13
2017-10-01T20:55:07.054Z,14.87
2017-10-01T20:57:35.798Z,13.57
2017-10-01T21:00:03.485Z,12.33
2017-10-01T21:02:32.058Z,12.80
2017-10-01T21:04:59.778Z,15.57
2017-10-01T21:07:28.420Z,14.90
2017-10-01T21:09:56.145Z,14.77
2017-10-01T21:12:23.887Z,13.30
2017-10-01T21:14:51.579Z,12.80
2017-10-01T21:17:20.175Z,13.10
2017-10-01T21:19:47.932Z,12.80
2017-10-01T21:22:15.658Z,13.10
2017-10-01T21:27:23.570Z,16.65
2017-10-01T21:29:51.284Z,11.93
2017-10-01T21:32:19.006Z,10.60
2017-10-01T21:34:46.727Z,10.53
2017-10-01T21:37:14.393Z,9.97
2017-10-01T21:39:42.091Z,10.57
2017-10-01T21:42:09.811Z,10.33
2017-10-01T21:44:37.472Z,9.47
2017-10-01T21:47:06.092Z,8.50
2017-10-01T21:49:35.114Z,10.10
2017-10-01T21:52:03.657Z,10.00
2017-10-01T21:54:32.183Z,9.27
2017-10-01T21:56:59.908Z,8.87
2017-10-01T21:59:27.579Z,8.47
2017-10-01T22:01:55.248Z,8.27
2017-10-01T22:04:22.980Z,8.83
2017-10-01T22:06:50.650Z,8.13
2017-10-01T22:09:18.314Z,9.00
2017-10-01T22:11:46.058Z,7.97
2017-10-01T22:14:13.749Z,7.37
2017-10-01T22:16:41.410Z,7.10
2017-10-01T22:19:09.146Z,8.03
2017-10-01T22:21:36.796Z,9.07
2017-10-01T22:24:05.298Z,9.77
2017-10-01T22:26:33.014Z,10.23
2017-10-01T22:29:00.662Z,9.87
2017-10-01T22:31:28.314Z,10.67
2017-10-01T22:33:56.085Z,11.13
2017-10-01T22:36:23.719Z,11.93
2017-10-01T22:38:51.385Z,12.10
2017-10-01T22:41:19.114Z,12.57
2017-10-01T22:43:46.783Z,13.70
2017-10-01T22:46:14.448Z,12.00
2017-10-01T22:48:42.171Z,11.97
2017-10-01T22:53:49.951Z,15.43
2017-10-01T22:56:18.473Z,13.40
2017-10-01T22:58:46.142Z,12.33
2017-10-01T23:01:14.719Z,11.33
2017-10-01T23:03:42.389Z,10.80
2017-10-01T23:06:10.054Z,11.60
2017-10-01T23:08:37.784Z,11.10
2017-10-01T23:11:05.457Z,13.47
2017-10-01T23:13:33.118Z,10.40
2017-10-01T23:16:00.850Z,10.37
2017-10-01T23:18:28.507Z,10.07
2017-10-01T23:20:56.176Z,10.83
2017-10-01T23:23:23.918Z,10.17
2017-10-01T23:25:51.586Z,10.50
2017-10-01T23:28:19.251Z,10.67
2017-10-01T23:30:47.002Z,10.50
2017-10-01T23:33:14.668Z,11.03
2017-10-01T23:35:42.344Z,11.20
2017-10-01T23:38:10.078Z,12.57
2017-10-01T23:40:37.740Z,12.70
2017-10-01T23:43:05.411Z,11.40
2017-10-01T23:45:33.157Z,12.77
2017-10-01T23:48:00.823Z,14.50
2017-10-01T23:50:28.490Z,12.90
2017-10-01T23:52:56.224Z,12.20
2017-10-01T23:55:23.887Z,12.33
2017-10-01T23:57:51.549Z,12.47
